Time;durP1;ratioP1;P1;durP2;ratioP2;P2;SDS_P1;SDS_P2;PMS_P1;PMS_P2;Temp;Humidity;BMP_temperature;BMP_pressure;BME280_temperature;BME280_humidity;BME280_pressure;Samples;Min_cycle;Max_cycle;Signal;HPM_P1;HPM_P2
2022/05/17 00:00:44;;;;;;;2.40;1.60;;;;;;;6.11;90.41;100506.16;5088734;28;20123;-75
2022/05/17 00:03:10;;;;;;;1.42;1.33;;;;;;;6.08;90.56;100511.31;5054495;28;20066;-75
2022/05/17 00:05:36;;;;;;;2.97;1.38;;;;;;;6.07;90.20;100504.19;5083011;28;20044;-76
2022/05/17 00:08:02;;;;;;;1.40;1.20;;;;;;;6.06;90.77;100503.38;5090766;28;20036;-75
2022/05/17 00:10:28;;;;;;;2.63;1.48;;;;;;;6.05;90.36;100499.00;5078529;28;20126;-75
2022/05/17 00:12:53;;;;;;;1.55;1.35;;;;;;;6.07;90.76;100504.19;5088675;28;20126;-75
2022/05/17 00:15:20;;;;;;;2.35;1.20;;;;;;;6.05;90.41;100505.25;5076292;28;20037;-76
2022/05/17 00:17:46;;;;;;;1.52;1.10;;;;;;;6.03;90.45;100510.16;5084341;28;20117;-75
2022/05/17 00:20:13;;;;;;;1.83;0.95;;;;;;;6.01;90.01;100509.59;5087574;28;21346;-76
2022/05/17 00:22:39;;;;;;;1.10;1.00;;;;;;;5.98;90.07;100503.81;5056682;28;20041;-74
2022/05/17 00:25:06;;;;;;;6.47;1.05;;;;;;;5.94;89.42;100505.41;5086727;28;20047;-74
2022/05/17 00:27:32;;;;;;;1.08;0.90;;;;;;;5.95;89.77;100512.50;5069410;28;20048;-75
2022/05/17 00:29:57;;;;;;;0.80;0.80;;;;;;;5.94;89.56;100510.88;5054741;28;20392;-71
2022/05/17 00:32:23;;;;;;;0.68;0.60;;;;;;;5.93;88.99;100499.16;5077873;28;20045;-72
2022/05/17 00:34:48;;;;;;;1.13;0.60;;;;;;;5.97;88.78;100504.91;5086384;28;20075;-72
2022/05/17 00:37:15;;;;;;;1.27;0.85;;;;;;;5.98;88.75;100501.09;5089830;28;20044;-72
2022/05/17 00:39:40;;;;;;;0.90;0.70;;;;;;;5.96;88.84;100498.63;5092164;28;20072;-72
2022/05/17 00:42:07;;;;;;;2.45;0.60;;;;;;;5.97;88.35;100505.72;5073767;28;20036;-71
2022/05/17 00:44:45;;;;;;;0.45;0.40;;;;;;;5.97;88.54;100494.00;5090043;28;20032;-72
2022/05/17 00:47:25;;;;;;;1.30;0.77;;;;;;;5.96;87.86;100498.63;5080295;28;20036;-72
2022/05/17 00:50:17;;;;;;;0.40;0.38;;;;;;;5.95;87.66;100507.06;5071216;28;20041;-72
2022/05/17 00:52:48;;;;;;;0.40;0.40;;;;;;;5.93;87.65;100501.06;5071081;28;20036;-72
2022/05/17 00:55:17;;;;;;;0.77;0.50;;;;;;;5.92;88.14;100500.22;5088623;28;20040;-72
2022/05/17 00:57:55;;;;;;;0.40;0.40;;;;;;;5.91;87.81;100508.66;5092162;28;20039;-72
2022/05/17 01:00:21;;;;;;;0.43;0.40;;;;;;;5.91;87.17;100505.94;5087043;28;20040;-72
2022/05/17 01:02:53;;;;;;;0.32;0.32;;;;;;;5.90;86.93;100501.53;5063456;28;20044;-72
2022/05/17 01:05:20;;;;;;;1.40;0.40;;;;;;;5.89;86.79;100508.84;5069972;28;20530;-72
2022/05/17 01:07:49;;;;;;;0.47;0.40;;;;;;;5.92;86.79;100513.03;5088489;28;20032;-72
2022/05/17 01:10:15;;;;;;;0.52;0.52;;;;;;;5.91;86.81;100506.75;5086678;28;20036;-72
2022/05/17 01:12:40;;;;;;;1.00;0.50;;;;;;;5.89;86.62;100514.28;5086604;28;20040;-72
2022/05/17 01:15:07;;;;;;;0.40;0.40;;;;;;;5.86;86.83;100503.09;5070948;28;20051;-72
2022/05/17 01:17:36;;;;;;;0.35;0.35;;;;;;;5.83;86.27;100509.88;5077233;28;20071;-72
2022/05/17 01:20:11;;;;;;;0.40;0.40;;;;;;;5.81;86.42;100508.47;5090750;28;20122;-72
2022/05/17 01:22:37;;;;;;;0.50;0.50;;;;;;;5.81;86.68;100512.03;5090381;28;20047;-72
2022/05/17 01:25:03;;;;;;;1.27;0.57;;;;;;;5.80;87.06;100515.00;5068906;28;20040;-72
2022/05/17 01:27:32;;;;;;;0.30;0.30;;;;;;;5.78;87.12;100512.53;5074815;28;20068;-72
2022/05/17 01:29:58;;;;;;;0.50;0.50;;;;;;;5.77;86.38;100512.78;5088629;28;20032;-72
2022/05/17 01:32:24;;;;;;;0.40;0.40;;;;;;;5.78;86.77;100506.28;5077326;28;20041;-72
2022/05/17 01:34:49;;;;;;;0.32;0.32;;;;;;;5.77;86.63;100508.16;5076675;28;20036;-72
2022/05/17 01:37:16;;;;;;;0.63;0.43;;;;;;;5.74;86.81;100517.69;5079296;28;20525;-72
2022/05/17 01:39:44;;;;;;;0.30;0.30;;;;;;;5.71;87.12;100509.97;5090200;28;20036;-72
2022/05/17 01:42:10;;;;;;;0.30;0.30;;;;;;;5.70;86.67;100516.50;5089998;28;20536;-72
2022/05/17 01:44:37;;;;;;;1.55;0.52;;;;;;;5.70;86.78;100521.13;5079601;28;20040;-72
2022/05/17 01:47:03;;;;;;;0.30;0.30;;;;;;;5.72;86.79;100519.78;5086909;28;20040;-72
2022/05/17 01:49:28;;;;;;;0.30;0.30;;;;;;;5.72;86.43;100525.25;5090113;28;20127;-72
2022/05/17 01:51:54;;;;;;;0.20;0.20;;;;;;;5.73;86.79;100515.19;5078862;28;20383;-72
2022/05/17 01:54:20;;;;;;;0.28;0.20;;;;;;;5.74;86.38;100519.56;5078456;28;20059;-72
2022/05/17 01:56:45;;;;;;;0.20;0.20;;;;;;;5.72;86.22;100532.59;5080183;28;20048;-72
2022/05/17 01:59:12;;;;;;;0.50;0.50;;;;;;;5.69;86.73;100531.19;5072472;28;20044;-72
2022/05/17 02:01:39;;;;;;;0.50;0.50;;;;;;;5.68;86.84;100529.53;5074057;28;20048;-72
2022/05/17 02:04:04;;;;;;;0.30;0.30;;;;;;;5.67;86.90;100532.53;5069179;28;20364;-72
2022/05/17 02:06:30;;;;;;;0.40;0.30;;;;;;;5.68;86.49;100531.44;5069559;28;20063;-72
2022/05/17 02:08:55;;;;;;;0.20;0.20;;;;;;;5.68;86.31;100536.88;5070535;28;20119;-72
2022/05/17 02:11:21;;;;;;;1.38;0.35;;;;;;;5.69;86.71;100539.34;5072675;28;20041;-72
2022/05/17 02:13:47;;;;;;;0.30;0.30;;;;;;;5.69;86.19;100523.03;5070498;28;20506;-72
2022/05/17 02:16:13;;;;;;;0.22;0.22;;;;;;;5.70;86.78;100532.84;5070468;28;20102;-72
2022/05/17 02:18:38;;;;;;;0.30;0.30;;;;;;;5.70;87.00;100535.56;5068934;28;20438;-72
2022/05/17 02:21:05;;;;;;;0.30;0.30;;;;;;;5.71;86.46;100533.66;5085266;28;20131;-72
2022/05/17 02:23:31;;;;;;;0.40;0.28;;;;;;;5.71;86.27;100529.03;5090164;28;20143;-72
2022/05/17 02:25:57;;;;;;;0.30;0.30;;;;;;;5.73;86.74;100531.53;5080220;28;20033;-72
2022/05/17 02:28:22;;;;;;;0.30;0.30;;;;;;;5.78;86.32;100533.50;5071382;28;20047;-72
2022/05/17 02:30:49;;;;;;;0.88;0.43;;;;;;;5.82;87.06;100537.34;5069188;28;20040;-72
2022/05/17 02:33:16;;;;;;;1.05;0.60;;;;;;;5.85;86.42;100534.94;5086656;28;20521;-72
2022/05/17 02:35:41;;;;;;;0.63;0.63;;;;;;;5.96;86.42;100535.94;5078586;28;20051;-72
2022/05/17 02:38:08;;;;;;;1.25;0.55;;;;;;;6.04;86.24;100533.59;5079185;28;20036;-72
2022/05/17 02:40:34;;;;;;;1.80;0.57;;;;;;;6.15;85.63;100537.25;5084715;28;20036;-72
2022/05/17 02:43:00;;;;;;;0.60;0.57;;;;;;;6.28;86.59;100544.25;5080546;28;20375;-72
2022/05/17 02:45:25;;;;;;;0.57;0.50;;;;;;;6.40;86.36;100542.16;5084102;28;20122;-72
2022/05/17 02:47:52;;;;;;;0.73;0.52;;;;;;;6.54;86.00;100550.78;5086309;28;20118;-72
2022/05/17 02:50:19;;;;;;;0.38;0.38;;;;;;;6.66;85.16;100551.44;5090601;28;20040;-72
2022/05/17 02:52:45;;;;;;;0.43;0.43;;;;;;;6.73;85.18;100552.06;5089290;28;20048;-72
2022/05/17 02:55:11;;;;;;;0.65;0.45;;;;;;;6.80;85.08;100541.78;5081725;28;20033;-72
2022/05/17 02:57:37;;;;;;;1.00;0.65;;;;;;;6.80;84.78;100549.13;5070480;28;20537;-72
2022/05/17 03:00:12;;;;;;;0.57;0.57;;;;;;;6.82;84.71;100539.63;5070097;28;20036;-72
2022/05/17 03:02:38;;;;;;;0.75;0.70;;;;;;;6.81;83.95;100537.97;5074408;28;20036;-72
2022/05/17 03:05:04;;;;;;;1.63;0.63;;;;;;;6.78;84.00;100543.94;5072374;28;20060;-72
2022/05/17 03:07:31;;;;;;;1.35;0.75;;;;;;;6.83;84.06;100551.34;5073688;28;20032;-71
2022/05/17 03:09:57;;;;;;;1.35;1.02;;;;;;;6.97;83.36;100540.84;5073544;28;20044;-71
2022/05/17 03:12:22;;;;;;;1.13;0.60;;;;;;;7.16;83.36;100542.91;5074139;28;20483;-71
2022/05/17 03:14:48;;;;;;;0.70;0.70;;;;;;;7.28;82.72;100545.44;5074439;28;20565;-71
2022/05/17 03:17:16;;;;;;;0.60;0.60;;;;;;;7.24;83.20;100550.59;5090850;28;20575;-71
2022/05/17 03:19:42;;;;;;;0.60;0.60;;;;;;;7.30;82.46;100545.19;5092915;28;20040;-71
2022/05/17 03:22:08;;;;;;;1.00;0.90;;;;;;;7.29;82.48;100546.25;5091909;28;20036;-71
2022/05/17 03:24:34;;;;;;;1.70;0.60;;;;;;;7.27;82.52;100543.78;5083560;28;20054;-71
2022/05/17 03:27:00;;;;;;;0.60;0.60;;;;;;;7.24;81.72;100547.03;5073538;28;20142;-71
2022/05/17 03:29:26;;;;;;;0.55;0.52;;;;;;;7.21;81.97;100551.13;5072464;28;20139;-71
2022/05/17 03:31:52;;;;;;;1.02;0.75;;;;;;;7.14;81.35;100553.25;5084549;28;20120;-71
2022/05/17 03:34:18;;;;;;;1.27;0.60;;;;;;;7.11;81.80;100548.31;5074079;28;20197;-71
2022/05/17 03:36:44;;;;;;;0.50;0.50;;;;;;;7.15;81.41;100554.91;5077293;28;20453;-71
2022/05/17 03:39:10;;;;;;;1.13;0.70;;;;;;;7.12;81.07;100549.97;5074080;28;20721;-71
2022/05/17 03:41:36;;;;;;;0.50;0.50;;;;;;;7.06;80.92;100547.44;5078805;28;20044;-72
2022/05/17 03:44:02;;;;;;;0.70;0.70;;;;;;;7.02;80.86;100551.78;5060704;28;20109;-72
2022/05/17 03:46:27;;;;;;;0.77;0.77;;;;;;;6.98;81.25;100551.50;5070014;28;20083;-72
2022/05/17 03:48:53;;;;;;;0.90;0.60;;;;;;;6.93;82.01;100554.16;5074338;28;20122;-72
2022/05/17 03:51:19;;;;;;;0.75;0.60;;;;;;;6.91;81.51;100554.41;5083133;28;20040;-72
2022/05/17 03:54:35;;;;;;;0.73;0.63;;;;;;;6.92;81.39;100556.06;5080248;28;20052;-72
2022/05/17 03:57:20;;;;;;;0.63;0.50;;;;;;;6.86;81.50;100557.09;5082818;28;20051;-72
2022/05/17 03:59:46;;;;;;;0.55;0.55;;;;;;;6.89;81.97;100564.75;5082314;28;20468;-72
2022/05/17 04:02:11;;;;;;;1.95;0.60;;;;;;;6.98;81.94;100564.31;5072368;28;20052;-72
2022/05/17 04:04:37;;;;;;;0.57;0.55;;;;;;;6.97;81.56;100565.38;5072898;28;20051;-72
2022/05/17 04:07:03;;;;;;;3.92;1.35;;;;;;;6.92;82.02;100556.06;5077035;28;20119;-71
2022/05/17 04:09:30;;;;;;;0.82;0.73;;;;;;;6.97;81.53;100573.56;5093003;28;20071;-71
2022/05/17 04:11:56;;;;;;;0.57;0.50;;;;;;;7.04;81.92;100572.25;5074142;28;20414;-71
2022/05/17 04:14:21;;;;;;;0.50;0.50;;;;;;;7.02;82.30;100570.88;5080545;28;20039;-70
2022/05/17 04:16:47;;;;;;;0.75;0.70;;;;;;;7.00;82.25;100564.88;5092519;28;20051;-71
2022/05/17 04:19:15;;;;;;;1.20;0.85;;;;;;;6.97;81.31;100581.75;5091805;28;20123;-72
2022/05/17 04:21:43;;;;;;;0.98;0.88;;;;;;;6.97;81.73;100584.50;5091090;28;20059;-72
2022/05/17 04:24:09;;;;;;;3.03;0.90;;;;;;;7.00;81.87;100581.22;5090275;28;20058;-72
2022/05/17 04:26:35;;;;;;;2.17;0.95;;;;;;;7.02;81.57;100579.06;5070843;28;20043;-72
2022/05/17 04:29:03;;;;;;;2.25;0.80;;;;;;;7.04;81.91;100582.34;5079653;28;20067;-72
2022/05/17 04:31:28;;;;;;;1.63;0.70;;;;;;;7.02;81.73;100589.97;5090021;28;20051;-72
2022/05/17 04:33:54;;;;;;;0.80;0.60;;;;;;;6.98;81.47;100589.69;5072858;28;20041;-72
2022/05/17 04:36:19;;;;;;;1.02;0.90;;;;;;;6.97;81.60;100590.75;5085068;28;20449;-72
2022/05/17 04:38:45;;;;;;;0.80;0.80;;;;;;;6.92;81.29;100599.69;5092094;28;20046;-72
2022/05/17 04:41:10;;;;;;;1.13;0.45;;;;;;;6.88;81.80;100597.75;5090711;28;20039;-73
2022/05/17 04:43:36;;;;;;;1.80;0.50;;;;;;;6.83;81.74;100601.25;5092161;28;20036;-72
2022/05/17 04:46:02;;;;;;;0.63;0.60;;;;;;;6.79;81.44;100597.41;5091842;28;20416;-72
2022/05/17 04:48:27;;;;;;;0.65;0.65;;;;;;;6.76;82.04;100606.06;5084523;28;20075;-72
2022/05/17 04:50:53;;;;;;;0.50;0.50;;;;;;;6.72;81.61;100598.69;5071596;28;20068;-73
2022/05/17 04:53:19;;;;;;;0.50;0.50;;;;;;;6.71;81.63;100602.47;5071253;28;20052;-72
2022/05/17 04:55:45;;;;;;;0.65;0.50;;;;;;;6.68;81.89;100606.56;5080525;28;20529;-72
2022/05/17 04:58:11;;;;;;;0.40;0.40;;;;;;;6.64;81.79;100608.16;5091924;28;20051;-72
2022/05/17 05:00:36;;;;;;;0.50;0.50;;;;;;;6.62;81.83;100605.69;5075363;28;20071;-72
2022/05/17 05:03:03;;;;;;;0.80;0.50;;;;;;;6.57;82.12;100611.06;5085634;28;20047;-72
2022/05/17 05:05:29;;;;;;;1.10;0.55;;;;;;;6.55;82.33;100615.13;5091722;28;20503;-72
2022/05/17 05:07:55;;;;;;;0.50;0.50;;;;;;;6.54;82.18;100610.75;5089211;28;20169;-72
2022/05/17 05:10:21;;;;;;;0.32;0.32;;;;;;;6.54;82.11;100625.19;5087183;28;20380;-73
2022/05/17 05:12:47;;;;;;;1.20;0.40;;;;;;;6.50;82.66;100615.91;5083648;28;20073;-72
2022/05/17 05:15:12;;;;;;;0.40;0.40;;;;;;;6.48;82.35;100628.97;5075806;28;20036;-72
2022/05/17 05:17:39;;;;;;;0.35;0.35;;;;;;;6.49;82.04;100629.78;5078374;28;20047;-72
2022/05/17 05:20:08;;;;;;;0.50;0.50;;;;;;;6.44;82.34;100625.09;5079770;28;20076;-72
2022/05/17 05:22:34;;;;;;;0.40;0.40;;;;;;;6.43;82.63;100628.09;5081593;28;20554;-72
2022/05/17 05:25:00;;;;;;;3.70;0.40;;;;;;;6.41;82.73;100644.66;5084104;28;20177;-72
2022/05/17 05:27:33;;;;;;;0.90;0.90;;;;;;;6.35;82.70;100646.50;5075245;28;20509;-72
2022/05/17 05:30:00;;;;;;;2.47;0.80;;;;;;;6.25;83.43;100637.41;5086623;28;20047;-72
2022/05/17 05:32:25;;;;;;;1.98;0.93;;;;;;;6.12;83.77;100644.03;5073297;28;20028;-72
2022/05/17 05:34:51;;;;;;;1.73;0.98;;;;;;;6.00;84.04;100648.75;5085200;28;20552;-72
2022/05/17 05:37:16;;;;;;;1.20;0.98;;;;;;;5.90;83.56;100634.97;5088530;28;20039;-73
2022/05/17 05:39:42;;;;;;;3.53;1.13;;;;;;;5.84;84.42;100644.94;5078049;28;20634;-71
2022/05/17 05:42:08;;;;;;;1.67;1.40;;;;;;;5.79;84.75;100650.31;5073143;28;20115;-72
2022/05/17 05:44:34;;;;;;;1.58;1.17;;;;;;;5.75;84.98;100647.28;5072334;28;20047;-73
2022/05/17 05:46:59;;;;;;;1.30;0.95;;;;;;;5.72;85.05;100655.09;5084711;28;20028;-73
2022/05/17 05:49:25;;;;;;;1.85;0.93;;;;;;;5.69;84.97;100658.31;5070893;28;20032;-73
2022/05/17 05:51:51;;;;;;;1.88;0.80;;;;;;;5.63;85.49;100660.16;5090039;28;20149;-73
2022/05/17 05:54:17;;;;;;;1.13;0.70;;;;;;;5.59;85.25;100663.63;5081681;28;20143;-73
2022/05/17 05:56:43;;;;;;;1.25;0.90;;;;;;;5.55;85.15;100654.28;5077744;28;20039;-72
2022/05/17 05:59:08;;;;;;;2.67;1.10;;;;;;;5.54;85.34;100660.78;5087552;28;20118;-73
2022/05/17 06:01:34;;;;;;;1.90;1.10;;;;;;;5.53;85.15;100661.88;5085547;28;20047;-72
2022/05/17 06:04:00;;;;;;;1.35;1.10;;;;;;;5.54;85.43;100664.34;5071812;28;20035;-73
2022/05/17 06:06:26;;;;;;;1.48;1.25;;;;;;;5.53;85.84;100667.31;5076174;28;20036;-73
2022/05/17 06:08:53;;;;;;;1.70;1.20;;;;;;;5.53;85.34;100670.03;5079322;28;20410;-72
2022/05/17 06:11:19;;;;;;;2.45;1.40;;;;;;;5.51;85.63;100677.63;5085736;28;20040;-73
2022/05/17 06:13:44;;;;;;;1.90;1.30;;;;;;;5.51;85.85;100669.47;5070479;28;20037;-73
2022/05/17 06:16:10;;;;;;;1.38;1.00;;;;;;;5.54;85.57;100680.66;5077798;28;20547;-72
2022/05/17 06:18:36;;;;;;;0.90;0.80;;;;;;;5.54;84.50;100680.66;5076824;28;20041;-71
2022/05/17 06:21:02;;;;;;;1.10;0.90;;;;;;;5.56;84.98;100678.56;5077856;28;20056;-71
2022/05/17 06:23:28;;;;;;;1.92;0.93;;;;;;;5.56;84.68;100683.19;5070318;28;20079;-71
2022/05/17 06:25:54;;;;;;;0.93;0.80;;;;;;;5.57;84.90;100691.09;5083314;28;20080;-72
2022/05/17 06:28:19;;;;;;;0.85;0.80;;;;;;;5.59;84.54;100686.22;5089318;28;20036;-72
2022/05/17 06:30:45;;;;;;;1.63;0.73;;;;;;;5.60;85.24;100692.50;5080682;28;20590;-72
2022/05/17 06:33:12;;;;;;;1.52;0.82;;;;;;;5.60;84.58;100693.31;5075110;28;20447;-72
2022/05/17 06:35:38;;;;;;;0.95;0.80;;;;;;;5.65;84.46;100701.56;5071373;28;20044;-72
2022/05/17 06:38:04;;;;;;;1.55;0.70;;;;;;;5.66;84.52;100697.75;5079133;28;20032;-71
2022/05/17 06:40:31;;;;;;;3.47;0.82;;;;;;;5.71;84.63;100691.56;5090370;28;20086;-72
2022/05/17 06:42:56;;;;;;;1.25;0.77;;;;;;;5.77;84.63;100697.94;5079038;28;20040;-72
2022/05/17 06:45:22;;;;;;;0.93;0.68;;;;;;;5.78;84.47;100702.31;5078831;28;20040;-72
2022/05/17 06:47:48;;;;;;;0.90;0.90;;;;;;;5.80;83.73;100702.88;5091190;28;20040;-72
2022/05/17 06:50:13;;;;;;;0.95;0.75;;;;;;;5.90;83.97;100698.47;5083417;28;20044;-72
2022/05/17 06:52:39;;;;;;;0.93;0.70;;;;;;;6.00;83.37;100704.06;5075865;28;20458;-72
2022/05/17 06:55:06;;;;;;;0.70;0.70;;;;;;;6.10;83.27;100702.56;5073606;28;20047;-72
2022/05/17 06:57:32;;;;;;;1.00;0.85;;;;;;;6.16;82.98;100704.28;5082763;28;20040;-72
2022/05/17 06:59:58;;;;;;;0.63;0.60;;;;;;;6.22;82.82;100701.38;5079984;28;20036;-71
2022/05/17 07:02:24;;;;;;;0.70;0.70;;;;;;;6.29;82.47;100707.47;5088267;28;20046;-71
2022/05/17 07:04:49;;;;;;;1.10;0.77;;;;;;;6.39;82.00;100708.69;5073252;28;20087;-71
2022/05/17 07:07:15;;;;;;;2.05;0.60;;;;;;;6.47;81.88;100716.44;5073150;28;20409;-72
2022/05/17 07:09:41;;;;;;;0.75;0.60;;;;;;;6.50;81.28;100721.38;5073751;28;20051;-71
2022/05/17 07:14:51;;;;;;;0.77;0.73;;;;;;;6.46;82.01;100725.69;5088946;28;20537;-72
2022/05/17 07:17:20;;;;;;;2.50;0.70;;;;;;;6.41;81.75;100737.34;5091724;28;20040;-71
2022/05/17 07:19:46;;;;;;;1.27;0.95;;;;;;;6.36;81.96;100748.16;5079716;28;20090;-72
2022/05/17 07:22:13;;;;;;;2.78;1.15;;;;;;;6.24;81.45;100752.88;5084613;28;20119;-72
2022/05/17 07:24:41;;;;;;;0.68;0.68;;;;;;;6.08;81.56;100753.75;5074329;28;20063;-72
2022/05/17 07:27:07;;;;;;;1.55;0.80;;;;;;;5.92;81.45;100742.63;5072655;28;20081;-71
2022/05/17 07:29:33;;;;;;;1.35;0.65;;;;;;;5.82;81.71;100757.91;5086158;28;20052;-71
2022/05/17 07:31:59;;;;;;;1.23;0.70;;;;;;;5.75;82.01;100769.81;5074786;28;20059;-72
2022/05/17 07:34:26;;;;;;;1.52;0.50;;;;;;;5.68;81.91;100763.69;5073316;28;20455;-72
2022/05/17 07:36:51;;;;;;;0.50;0.50;;;;;;;5.63;82.74;100763.59;5081256;28;20040;-73
2022/05/17 07:39:17;;;;;;;0.93;0.70;;;;;;;5.60;82.59;100777.69;5081775;28;20134;-73
2022/05/17 07:41:42;;;;;;;0.52;0.50;;;;;;;5.55;82.13;100795.81;5083340;28;20119;-73
2022/05/17 07:44:09;;;;;;;0.82;0.80;;;;;;;5.43;82.42;100783.09;5091709;28;20078;-72
2022/05/17 07:46:34;;;;;;;1.45;0.70;;;;;;;5.35;82.40;100786.19;5089396;28;20047;-73
2022/05/17 07:49:01;;;;;;;0.22;0.22;;;;;;;5.33;81.96;100788.34;5080866;28;20063;-73
2022/05/17 07:51:27;;;;;;;0.32;0.30;;;;;;;5.36;82.60;100797.91;5081306;28;20032;-74
2022/05/17 07:53:54;;;;;;;3.33;0.57;;;;;;;5.37;83.14;100794.13;5054718;28;20114;-73
2022/05/17 07:56:19;;;;;;;0.70;0.70;;;;;;;5.35;82.71;100790.81;5083219;28;20044;-73
2022/05/17 07:58:45;;;;;;;2.13;0.90;;;;;;;5.39;82.43;100792.84;5085556;28;20126;-73
2022/05/17 08:01:12;;;;;;;0.80;0.60;;;;;;;5.46;82.57;100798.13;5092074;28;20399;-73
2022/05/17 08:03:38;;;;;;;0.77;0.52;;;;;;;5.51;82.58;100803.66;5102313;28;20082;-73
2022/05/17 08:06:03;;;;;;;3.10;0.80;;;;;;;5.57;82.96;100797.25;5106122;28;20035;-73
2022/05/17 08:08:29;;;;;;;0.57;0.50;;;;;;;5.66;82.49;100797.66;5087102;28;20033;-73
2022/05/17 08:10:55;;;;;;;2.50;0.80;;;;;;;5.70;82.64;100805.09;5072676;28;20036;-73
2022/05/17 08:13:22;;;;;;;1.00;0.60;;;;;;;5.71;81.83;100806.75;5072576;28;20044;-72
2022/05/17 08:15:49;;;;;;;1.65;0.60;;;;;;;5.71;81.65;100811.34;5074937;28;20040;-74
2022/05/17 08:18:15;;;;;;;0.80;0.70;;;;;;;5.70;81.99;100815.16;5082627;28;20040;-72
2022/05/17 08:20:42;;;;;;;1.42;0.90;;;;;;;5.74;81.74;100810.91;5075816;28;20037;-72
2022/05/17 08:23:08;;;;;;;1.67;0.93;;;;;;;5.77;81.31;100829.47;5071962;28;20090;-72
2022/05/17 08:28:18;;;;;;;0.47;0.47;;;;;;;5.73;82.01;100842.75;5070959;28;20139;-72
2022/05/17 08:30:45;;;;;;;0.50;0.50;;;;;;;5.69;82.44;100841.56;5075821;28;20043;-72
2022/05/17 08:33:15;;;;;;;0.50;0.50;;;;;;;5.60;81.33;100845.75;5075626;28;20039;-72
2022/05/17 08:35:54;;;;;;;1.70;0.70;;;;;;;5.55;81.11;100851.06;5074321;28;20087;-72
2022/05/17 08:38:20;;;;;;;1.15;0.60;;;;;;;5.52;81.71;100846.13;5089898;28;20040;-72
2022/05/17 08:41:25;;;;;;;0.60;0.57;;;;;;;5.56;82.18;100852.75;5078410;28;20032;-74
2022/05/17 08:44:23;;;;;;;2.38;0.70;;;;;;;5.59;81.36;100852.28;5085590;28;20126;-74
2022/05/17 08:47:09;;;;;;;0.50;0.50;;;;;;;5.62;81.53;100854.50;5088829;28;20048;-75
2022/05/17 08:49:44;;;;;;;0.70;0.70;;;;;;;5.63;81.58;100864.31;5073018;28;20328;-75
2022/05/17 08:52:13;;;;;;;1.38;0.70;;;;;;;5.62;81.38;100868.13;5070642;28;20043;-75
2022/05/17 08:54:43;;;;;;;0.50;0.50;;;;;;;5.61;81.24;100860.19;5072363;28;20071;-75
2022/05/17 08:57:20;;;;;;;0.50;0.50;;;;;;;5.59;81.28;100862.34;5072303;28;20032;-75
2022/05/17 08:59:47;;;;;;;0.65;0.40;;;;;;;5.58;80.98;100874.28;5089421;28;20042;-75
2022/05/17 09:02:43;;;;;;;0.50;0.50;;;;;;;5.58;80.80;100872.41;5079036;28;20123;-75
2022/05/17 09:05:20;;;;;;;1.58;0.68;;;;;;;5.57;80.52;100878.91;5070464;28;20063;-75
2022/05/17 09:07:46;;;;;;;0.95;0.50;;;;;;;5.59;80.48;100873.22;5071338;28;20120;-75
2022/05/17 09:10:36;;;;;;;0.70;0.70;;;;;;;5.60;80.66;100870.25;5072811;28;20128;-75
2022/05/17 09:13:08;;;;;;;1.70;0.75;;;;;;;5.59;80.86;100884.13;5101256;28;20044;-76
2022/05/17 09:15:34;;;;;;;0.85;0.47;;;;;;;5.58;80.92;100879.75;5079713;28;20033;-78
2022/05/17 09:18:04;;;;;;;0.93;0.55;;;;;;;5.58;80.40;100886.00;5092944;28;20047;-76
2022/05/17 09:20:32;;;;;;;0.52;0.38;;;;;;;5.57;79.95;100880.81;5094500;28;20050;-76
2022/05/17 09:22:58;;;;;;;0.98;0.50;;;;;;;5.58;80.00;100880.56;5071262;28;20067;-77
2022/05/17 09:25:47;;;;;;;0.50;0.50;;;;;;;5.59;79.80;100889.56;5072143;28;20040;-77
2022/05/17 09:28:25;;;;;;;1.23;0.77;;;;;;;5.59;79.74;100878.66;5090440;28;20072;-76
2022/05/17 09:31:08;;;;;;;1.75;0.60;;;;;;;5.61;79.19;100892.84;5073360;28;20041;-76
2022/05/17 09:33:35;;;;;;;3.92;0.60;;;;;;;5.62;79.35;100892.63;5071059;28;20131;-76
2022/05/17 09:36:07;;;;;;;0.85;0.70;;;;;;;5.61;79.84;100898.31;5081585;28;20084;-76
2022/05/17 09:38:38;;;;;;;1.15;0.50;;;;;;;5.59;79.53;100895.00;5086570;28;20032;-76
2022/05/17 09:41:11;;;;;;;0.70;0.70;;;;;;;5.55;79.24;100900.06;5087912;28;20048;-76
2022/05/17 09:43:39;;;;;;;1.10;0.40;;;;;;;5.52;79.24;100903.28;5109919;28;20441;-76
2022/05/17 09:46:10;;;;;;;1.55;0.55;;;;;;;5.53;79.35;100891.31;5110351;28;20035;-76
2022/05/17 09:54:31;;;;;;;0.73;0.50;;;;;;;5.54;79.94;100912.03;5079070;28;20058;-76
2022/05/17 09:57:30;;;;;;;0.55;0.55;;;;;;;5.53;79.38;100913.09;5058246;28;20036;-76
2022/05/17 10:00:02;;;;;;;;;;;;;;;5.52;78.97;100910.63;5054823;28;20041;-77
2022/05/17 10:02:50;;;;;;;0.80;0.60;;;;;;;5.52;78.43;100927.78;5081972;28;19926;-76
2022/05/17 10:05:37;;;;;;;0.75;0.70;;;;;;;5.50;78.36;100932.66;5087383;28;20093;-75
2022/05/17 10:08:30;;;;;;;1.05;0.82;;;;;;;5.55;78.73;100929.19;5074225;28;20036;-77
2022/05/17 10:11:04;;;;;;;1.17;0.80;;;;;;;5.57;78.25;100930.63;5070456;28;20036;-76
2022/05/17 10:14:02;;;;;;;0.90;0.70;;;;;;;5.59;77.59;100931.22;5072808;28;20037;-77
2022/05/17 10:16:43;;;;;;;0.95;0.70;;;;;;;5.58;78.01;100937.72;5079074;28;20040;-77
2022/05/17 10:19:17;;;;;;;0.70;0.70;;;;;;;5.58;77.49;100926.00;5075017;28;20064;-77
2022/05/17 10:22:08;;;;;;;2.45;1.15;;;;;;;5.58;77.74;100942.34;5092729;28;20036;-76
2022/05/17 10:24:55;;;;;;;1.77;1.08;;;;;;;5.59;78.02;100939.38;5057671;28;20503;-74
2022/05/17 10:27:33;;;;;;;1.85;1.60;;;;;;;5.58;78.06;100939.63;5089309;28;20032;-75
2022/05/17 10:30:11;;;;;;;1.02;0.95;;;;;;;5.55;77.58;100937.34;5084456;28;20037;-76
2022/05/17 10:32:51;;;;;;;1.30;1.00;;;;;;;5.53;77.73;100950.38;5080254;28;20047;-76
2022/05/17 10:35:28;;;;;;;1.30;1.02;;;;;;;5.53;77.89;100948.50;5089453;28;20044;-75
2022/05/17 10:38:05;;;;;;;1.92;1.23;;;;;;;5.52;77.42;100946.84;5078283;28;20056;-88
2022/05/17 10:40:43;;;;;;;1.70;1.20;;;;;;;5.49;76.95;100955.47;5068169;28;20387;-75
2022/05/17 10:43:11;;;;;;;5.47;2.40;;;;;;;5.53;77.23;100953.94;5094926;28;20046;-75
2022/05/17 10:45:38;;;;;;;2.20;1.53;;;;;;;5.54;77.90;100963.75;5086513;28;20553;-76
2022/05/17 10:48:07;;;;;;;2.08;1.40;;;;;;;5.54;78.17;100957.47;5084329;28;20040;-76
2022/05/17 10:50:54;;;;;;;3.38;1.48;;;;;;;5.54;78.08;100965.66;5081813;28;20036;-75
2022/05/17 10:53:39;;;;;;;3.25;1.02;;;;;;;5.51;77.63;100966.97;5094032;28;20137;-75
2022/05/17 10:56:07;;;;;;;1.75;1.55;;;;;;;5.52;78.19;100970.50;5086385;28;20120;-77
2022/05/17 10:58:39;;;;;;;1.35;1.08;;;;;;;5.50;78.28;100984.34;5093387;28;20046;-76
2022/05/17 11:01:15;;;;;;;2.63;1.48;;;;;;;5.48;78.10;100977.50;5091619;28;20038;-77
2022/05/17 11:04:01;;;;;;;1.88;1.15;;;;;;;5.49;78.15;100981.88;5088972;28;20139;-77
2022/05/17 11:06:35;;;;;;;5.95;1.10;;;;;;;5.45;78.88;100986.97;5087300;28;20054;-78
2022/05/17 11:09:27;;;;;;;1.02;0.82;;;;;;;5.40;78.78;100973.28;5087798;28;20533;-77
2022/05/17 11:12:09;;;;;;;1.67;1.17;;;;;;;5.36;79.34;100991.13;5064825;28;20041;-78
2022/05/17 11:14:55;;;;;;;1.27;1.02;;;;;;;5.34;79.87;100990.53;5078582;28;20070;-79
2022/05/17 11:17:50;;;;;;;1.38;1.00;;;;;;;5.35;79.77;100995.72;5085266;28;20036;-80
2022/05/17 11:20:33;;;;;;;1.40;1.23;;;;;;;5.36;80.27;101012.88;5082033;28;20080;-82
2022/05/17 11:23:31;;;;;;;2.15;1.35;;;;;;;5.31;79.67;101008.16;5086957;28;20414;-81
2022/05/17 11:25:56;;;;;;;1.58;1.10;;;;;;;5.31;79.62;101001.91;5084343;28;20090;-80
2022/05/17 11:28:44;;;;;;;3.03;1.35;;;;;;;5.31;79.23;101010.06;5077930;28;20434;-84
2022/05/17 11:31:13;;;;;;;3.88;1.48;;;;;;;5.34;79.89;101023.19;5075424;28;20097;-83
2022/05/17 11:33:40;;;;;;;1.40;1.10;;;;;;;5.32;79.65;100996.22;5093742;28;20050;-78
2022/05/17 11:36:07;;;;;;;3.13;1.75;;;;;;;5.33;78.80;101010.63;5091844;28;20028;-86
2022/05/17 11:38:32;;;;;;;4.60;1.38;;;;;;;5.36;79.76;101013.72;5074355;28;20036;-87
2022/05/17 11:41:04;;;;;;;1.42;1.00;;;;;;;5.38;79.29;101002.59;5073108;28;20051;-79
2022/05/17 11:43:46;;;;;;;1.95;1.23;;;;;;;5.37;78.93;101017.25;5076343;28;20046;-77
2022/05/17 11:46:24;;;;;;;1.88;1.27;;;;;;;5.38;79.21;101008.03;5081597;28;20325;-77
2022/05/17 11:48:55;;;;;;;3.55;1.50;;;;;;;5.39;79.51;101042.38;5084861;28;20410;-76
2022/05/17 11:51:29;;;;;;;2.45;1.40;;;;;;;5.41;78.75;101029.34;5091917;28;20032;-76
2022/05/17 11:53:55;;;;;;;1.27;1.10;;;;;;;5.41;79.26;101023.91;5084165;28;20110;-77
2022/05/17 11:56:28;;;;;;;3.42;1.60;;;;;;;5.41;78.71;101032.91;5083342;28;20040;-77